createdAt,value
2023-01-06T00:01:22.336Z,9.45
2023-01-06T00:03:51.476Z,10.52
2023-01-06T00:06:27.360Z,12.00
2023-01-06T00:08:56.027Z,11.25
2023-01-06T00:11:24.653Z,7.85
2023-01-06T00:13:52.729Z,9.07
2023-01-06T00:16:21.728Z,11.20
2023-01-06T00:18:49.699Z,6.65
2023-01-06T00:21:17.456Z,16.35
2023-01-06T00:23:46.435Z,7.93
2023-01-06T00:26:14.105Z,11.68
2023-01-06T00:28:41.777Z,12.00
2023-01-06T00:31:10.949Z,9.38
2023-01-06T00:33:39.195Z,8.57
2023-01-06T00:36:08.565Z,11.23
2023-01-06T00:38:37.802Z,11.93
2023-01-06T00:41:28.850Z,12.00
2023-01-06T00:43:57.049Z,7.05
2023-01-06T00:46:28.756Z,9.63
2023-01-06T00:49:06.362Z,11.52
2023-01-06T00:51:35.241Z,6.22
2023-01-06T00:54:03.105Z,8.68
2023-01-06T00:56:33.131Z,11.98
2023-01-06T00:59:02.947Z,7.97
2023-01-06T01:01:30.709Z,7.35
2023-01-06T01:03:58.594Z,9.18
2023-01-06T01:06:26.337Z,9.70
2023-01-06T01:08:55.256Z,9.68
2023-01-06T01:11:41.770Z,7.88
2023-01-06T01:14:11.977Z,10.30
2023-01-06T01:16:39.852Z,9.80
2023-01-06T01:19:09.349Z,9.20
2023-01-06T01:21:37.119Z,11.93
2023-01-06T01:24:05.575Z,9.30
2023-01-06T01:26:33.465Z,12.65
2023-01-06T01:29:01.514Z,6.90
2023-01-06T01:31:31.474Z,8.68
2023-01-06T01:33:59.201Z,8.02
2023-01-06T01:36:26.858Z,9.07
2023-01-06T01:38:56.979Z,11.82
2023-01-06T01:41:26.180Z,10.10
2023-01-06T01:43:57.914Z,6.93
2023-01-06T01:46:30.150Z,6.68
2023-01-06T01:49:02.845Z,9.65
2023-01-06T01:51:33.129Z,7.72
2023-01-06T01:54:06.805Z,7.20
2023-01-06T01:56:36.604Z,4.70
2023-01-06T01:59:07.297Z,5.47
2023-01-06T02:01:35.056Z,6.68
2023-01-06T02:04:05.267Z,6.32
2023-01-06T02:06:33.351Z,7.60
2023-01-06T02:09:05.504Z,6.30
2023-01-06T02:11:36.695Z,5.85
2023-01-06T02:14:10.872Z,6.30
2023-01-06T02:16:53.819Z,5.32
2023-01-06T02:19:43.283Z,4.85
2023-01-06T02:22:30.278Z,5.82
2023-01-06T02:25:14.554Z,5.60
2023-01-06T02:28:30.669Z,4.00
2023-01-06T02:31:24.761Z,6.60
2023-01-06T02:34:00.214Z,3.80
2023-01-06T02:36:40.277Z,7.32
2023-01-06T02:39:24.313Z,6.95
2023-01-06T02:42:04.708Z,4.40
2023-01-06T02:44:40.993Z,5.55
2023-01-06T02:47:16.476Z,4.85
2023-01-06T02:49:53.971Z,6.70
2023-01-06T02:52:29.106Z,7.00
2023-01-06T02:54:59.844Z,8.63
2023-01-06T02:57:35.914Z,6.18
2023-01-06T03:00:13.553Z,7.22
2023-01-06T03:02:44.386Z,5.20
2023-01-06T03:05:17.329Z,5.82
2023-01-06T03:07:47.317Z,3.92
2023-01-06T03:10:19.863Z,5.45
2023-01-06T03:12:52.596Z,3.55
2023-01-06T03:15:20.997Z,3.65
2023-01-06T03:17:48.919Z,3.03
2023-01-06T03:20:18.226Z,5.35
2023-01-06T03:22:45.913Z,4.75
2023-01-06T03:25:14.101Z,4.07
2023-01-06T03:27:41.767Z,3.72
2023-01-06T03:30:13.172Z,5.00
2023-01-06T03:32:49.412Z,4.90
2023-01-06T03:35:33.010Z,3.53
2023-01-06T03:38:05.780Z,3.08
2023-01-06T03:40:40.174Z,3.70
2023-01-06T03:43:16.455Z,3.08
2023-01-06T03:45:56.365Z,2.55
2023-01-06T03:48:35.131Z,3.55
2023-01-06T03:51:10.614Z,1.80
2023-01-06T03:53:43.532Z,3.33
2023-01-06T03:56:17.657Z,3.95
2023-01-06T03:58:49.407Z,3.30
2023-01-06T04:01:18.072Z,2.05
2023-01-06T04:03:47.387Z,3.63
2023-01-06T04:06:16.838Z,3.58
2023-01-06T04:08:44.648Z,3.00
2023-01-06T04:11:33.265Z,4.65
2023-01-06T04:14:00.336Z,3.40
2023-01-06T04:16:28.104Z,2.97
2023-01-06T04:18:55.737Z,3.70
2023-01-06T04:21:26.306Z,5.55
2023-01-06T04:23:53.974Z,2.67
2023-01-06T04:26:21.639Z,3.45
2023-01-06T04:28:49.428Z,3.38
2023-01-06T04:31:17.293Z,4.03
2023-01-06T04:33:44.980Z,4.88
2023-01-06T04:36:12.745Z,3.35
2023-01-06T04:38:41.763Z,4.38
2023-01-06T04:41:09.451Z,4.85
2023-01-06T04:43:37.144Z,2.63
2023-01-06T04:46:05.331Z,4.43
2023-01-06T04:48:33.987Z,3.13
2023-01-06T04:51:02.659Z,3.20
2023-01-06T04:53:30.313Z,3.47
2023-01-06T04:56:03.560Z,3.00
2023-01-06T04:58:31.233Z,3.42
2023-01-06T05:01:01.010Z,3.40
2023-01-06T05:03:29.200Z,3.53
2023-01-06T05:05:56.817Z,2.78
2023-01-06T05:08:24.450Z,4.10
2023-01-06T05:10:52.203Z,3.33
2023-01-06T05:13:21.141Z,2.38
2023-01-06T05:15:48.733Z,4.10
2023-01-06T05:18:16.361Z,2.70
2023-01-06T05:20:43.995Z,3.47
2023-01-06T05:23:11.642Z,3.53
2023-01-06T05:25:39.354Z,3.22
2023-01-06T05:28:07.196Z,4.18
2023-01-06T05:30:36.195Z,4.22
2023-01-06T05:33:03.847Z,2.20
2023-01-06T05:35:31.520Z,3.38
2023-01-06T05:37:59.271Z,3.00
2023-01-06T05:40:26.902Z,4.00
2023-01-06T05:42:55.019Z,1.48
2023-01-06T05:45:23.591Z,2.08
2023-01-06T05:47:52.700Z,1.77
2023-01-06T05:50:20.417Z,4.57
2023-01-06T05:52:48.111Z,6.95
2023-01-06T05:55:16.034Z,10.15
2023-01-06T05:57:43.639Z,9.13
2023-01-06T06:00:12.837Z,16.00
2023-01-06T06:02:40.513Z,9.93
2023-01-06T06:05:10.160Z,4.30
2023-01-06T06:07:38.185Z,3.17
2023-01-06T06:10:06.782Z,3.45
2023-01-06T06:12:34.395Z,4.55
2023-01-06T06:15:02.564Z,1.90
2023-01-06T06:17:32.076Z,2.08
2023-01-06T06:19:59.790Z,1.92
2023-01-06T06:22:28.873Z,2.10
2023-01-06T06:24:56.613Z,1.33
2023-01-06T06:27:24.339Z,2.10
2023-01-06T06:29:51.990Z,1.02
2023-01-06T06:32:19.641Z,2.03
2023-01-06T06:34:47.390Z,2.25
2023-01-06T06:37:15.282Z,2.40
2023-01-06T06:39:44.311Z,1.85
2023-01-06T06:42:11.950Z,1.95
2023-01-06T06:44:39.667Z,2.33
2023-01-06T06:47:07.457Z,1.02
2023-01-06T06:49:35.125Z,3.03
2023-01-06T06:52:02.760Z,2.97
2023-01-06T06:54:30.725Z,0.60
2023-01-06T06:56:59.707Z,2.63
2023-01-06T06:59:27.347Z,1.95
2023-01-06T07:01:55.116Z,3.28
2023-01-06T07:04:22.884Z,1.80
2023-01-06T07:06:50.577Z,0.70
2023-01-06T07:09:18.228Z,1.48
2023-01-06T07:11:45.840Z,3.08
2023-01-06T07:14:14.759Z,2.05
2023-01-06T07:16:42.413Z,1.85
2023-01-06T07:19:10.276Z,2.35
2023-01-06T07:21:38.675Z,1.60
2023-01-06T07:24:07.007Z,1.58
2023-01-06T07:26:35.581Z,1.25
2023-01-06T07:29:05.021Z,3.78
2023-01-06T07:31:39.390Z,1.67
2023-01-06T07:34:07.826Z,1.20
2023-01-06T07:36:35.659Z,2.33
2023-01-06T07:39:04.459Z,3.88
2023-01-06T07:41:32.509Z,1.15
2023-01-06T07:44:00.167Z,1.67
2023-01-06T07:46:27.826Z,1.73
2023-01-06T07:48:57.564Z,2.58
2023-01-06T07:51:25.216Z,2.15
2023-01-06T07:53:52.905Z,1.40
2023-01-06T07:56:21.650Z,2.97
2023-01-06T07:58:49.412Z,2.90
2023-01-06T08:01:17.315Z,1.23
2023-01-06T08:03:44.958Z,2.35
2023-01-06T08:06:14.569Z,1.55
2023-01-06T08:08:42.987Z,0.85
2023-01-06T08:11:14.809Z,1.58
2023-01-06T08:13:42.433Z,2.95
2023-01-06T08:16:11.864Z,2.28
2023-01-06T08:18:40.230Z,1.00
2023-01-06T08:21:10.413Z,3.90
2023-01-06T08:23:39.806Z,5.10
2023-01-06T08:26:10.158Z,2.10
2023-01-06T08:28:37.804Z,1.95
2023-01-06T08:31:09.829Z,2.30
2023-01-06T08:33:37.622Z,1.40
2023-01-06T08:36:07.797Z,1.13
2023-01-06T08:38:37.369Z,3.05
2023-01-06T08:41:06.609Z,1.02
2023-01-06T08:43:34.463Z,2.78
2023-01-06T08:46:04.672Z,1.92
2023-01-06T08:48:33.403Z,1.17
2023-01-06T08:51:03.738Z,1.38
2023-01-06T08:53:31.367Z,2.25
2023-01-06T08:55:59.513Z,4.93
2023-01-06T08:58:28.528Z,1.50
2023-01-06T09:00:56.509Z,1.35
2023-01-06T09:03:24.149Z,6.10
2023-01-06T09:05:55.747Z,1.60
2023-01-06T09:08:23.737Z,1.98
2023-01-06T09:10:52.337Z,2.00
2023-01-06T09:13:19.975Z,1.58
2023-01-06T09:15:49.125Z,1.33
2023-01-06T09:18:16.916Z,2.00
2023-01-06T09:20:45.807Z,1.77
2023-01-06T09:23:13.543Z,2.17
2023-01-06T09:25:41.242Z,3.30
2023-01-06T09:28:11.036Z,1.60
2023-01-06T09:30:39.548Z,1.67
2023-01-06T09:33:08.595Z,0.98
2023-01-06T09:35:36.497Z,1.98
2023-01-06T09:38:04.272Z,1.10
2023-01-06T09:40:42.035Z,1.73
2023-01-06T09:43:19.199Z,2.30
2023-01-06T09:45:50.604Z,1.25
2023-01-06T09:48:26.857Z,1.77
2023-01-06T09:50:57.836Z,1.45
2023-01-06T09:53:30.096Z,0.73
2023-01-06T09:56:00.846Z,3.72
2023-01-06T09:58:33.309Z,1.40
2023-01-06T10:01:06.868Z,1.75
2023-01-06T10:03:35.981Z,0.95
2023-01-06T10:06:24.950Z,1.63
2023-01-06T10:09:03.001Z,0.85
2023-01-06T10:11:40.912Z,1.83
2023-01-06T10:14:16.526Z,3.30
2023-01-06T10:16:59.827Z,1.52
2023-01-06T10:19:41.325Z,1.70
2023-01-06T10:22:20.147Z,3.33
2023-01-06T10:24:55.874Z,2.22
2023-01-06T10:27:28.267Z,1.80
2023-01-06T10:29:57.820Z,0.82
2023-01-06T10:32:30.822Z,1.35
2023-01-06T10:35:01.233Z,1.83
2023-01-06T10:37:37.463Z,2.22
2023-01-06T10:40:16.754Z,1.08
2023-01-06T10:42:57.544Z,1.73
2023-01-06T10:45:29.892Z,1.88
2023-01-06T10:47:59.031Z,1.60
2023-01-06T10:50:28.820Z,1.45
2023-01-06T10:52:56.543Z,1.15
2023-01-06T10:55:34.635Z,3.33
2023-01-06T10:58:10.818Z,2.55
2023-01-06T11:00:38.507Z,1.75
2023-01-06T11:03:32.258Z,1.60
2023-01-06T11:06:07.512Z,1.52
2023-01-06T11:08:36.409Z,1.77
2023-01-06T11:11:16.656Z,4.32
2023-01-06T11:13:57.291Z,1.00
2023-01-06T11:16:28.331Z,2.35
2023-01-06T11:18:58.918Z,2.40
2023-01-06T11:21:39.005Z,2.22
2023-01-06T11:24:19.149Z,1.85
2023-01-06T11:26:53.001Z,2.63
2023-01-06T11:29:28.927Z,2.05
2023-01-06T11:32:01.575Z,3.15
2023-01-06T11:34:31.023Z,2.42
2023-01-06T11:37:01.485Z,2.67
2023-01-06T11:39:34.314Z,2.97
2023-01-06T11:42:14.253Z,2.85
2023-01-06T11:44:45.375Z,2.83
2023-01-06T11:47:17.097Z,2.92
2023-01-06T11:49:50.793Z,2.00
2023-01-06T11:52:27.141Z,2.92
2023-01-06T11:55:04.571Z,3.20
2023-01-06T11:57:40.282Z,3.33
2023-01-06T12:00:29.013Z,3.78
2023-01-06T12:03:03.490Z,2.00
2023-01-06T12:05:39.457Z,4.03
2023-01-06T12:08:16.517Z,4.13
2023-01-06T12:10:49.311Z,3.97
2023-01-06T12:13:17.676Z,2.80
2023-01-06T12:15:52.670Z,3.78
2023-01-06T12:18:28.235Z,2.42
2023-01-06T12:20:57.737Z,3.67
2023-01-06T12:23:30.149Z,2.85
2023-01-06T12:26:02.029Z,7.18
2023-01-06T12:28:33.058Z,2.75
2023-01-06T12:31:07.457Z,3.22
2023-01-06T12:33:40.641Z,5.03
2023-01-06T12:36:16.045Z,4.57
2023-01-06T12:38:55.205Z,5.05
2023-01-06T12:41:29.673Z,2.88
2023-01-06T12:44:06.529Z,3.03
2023-01-06T12:46:45.983Z,2.90
2023-01-06T12:49:22.585Z,2.88
2023-01-06T12:51:55.074Z,2.22
2023-01-06T12:54:29.930Z,4.28
2023-01-06T12:57:10.222Z,4.32
2023-01-06T12:59:51.592Z,2.55
2023-01-06T13:02:35.707Z,3.58
2023-01-06T13:05:17.596Z,2.85
2023-01-06T13:07:54.840Z,2.65
2023-01-06T13:10:31.214Z,5.70
2023-01-06T13:13:12.706Z,4.75
2023-01-06T13:15:45.522Z,3.80
2023-01-06T13:18:18.204Z,3.35
2023-01-06T13:20:51.569Z,3.35
2023-01-06T13:23:53.196Z,2.10
2023-01-06T13:26:41.476Z,2.25
2023-01-06T13:29:19.103Z,5.00
2023-01-06T13:32:18.586Z,1.83
2023-01-06T13:35:16.607Z,2.20
2023-01-06T13:38:01.393Z,2.05
2023-01-06T13:40:34.723Z,1.90
2023-01-06T13:43:07.110Z,2.17
2023-01-06T13:45:40.247Z,1.45
2023-01-06T13:48:15.575Z,2.30
2023-01-06T13:50:44.848Z,1.63
2023-01-06T13:53:18.563Z,1.70
2023-01-06T13:55:47.680Z,2.33
2023-01-06T13:58:39.846Z,4.93
2023-01-06T14:01:10.539Z,1.05
2023-01-06T14:03:39.305Z,2.50
2023-01-06T14:06:11.859Z,4.95
2023-01-06T14:08:54.161Z,5.97
2023-01-06T14:11:27.724Z,3.95
2023-01-06T14:13:59.200Z,5.07
2023-01-06T14:16:44.370Z,4.85
2023-01-06T14:19:18.713Z,4.07
2023-01-06T14:21:49.721Z,3.28
2023-01-06T14:24:31.131Z,4.20
2023-01-06T14:27:03.094Z,5.00
2023-01-06T14:30:05.347Z,2.60
2023-01-06T14:33:07.484Z,3.17
2023-01-06T14:35:46.640Z,3.40
2023-01-06T14:38:28.139Z,3.67
2023-01-06T14:41:04.436Z,3.67
2023-01-06T14:43:42.706Z,4.95
2023-01-06T14:46:21.387Z,6.63
2023-01-06T14:48:57.279Z,3.83
2023-01-06T14:51:33.628Z,3.13
2023-01-06T14:54:12.376Z,4.05
2023-01-06T14:56:45.739Z,6.20
2023-01-06T14:59:16.855Z,6.80
2023-01-06T15:01:58.715Z,6.78
2023-01-06T15:04:31.501Z,4.97
2023-01-06T15:07:17.204Z,3.47
2023-01-06T15:09:46.313Z,2.90
2023-01-06T15:12:26.535Z,2.10
2023-01-06T15:14:55.195Z,5.18
2023-01-06T15:17:25.253Z,3.38
2023-01-06T15:19:53.866Z,5.38
2023-01-06T15:22:24.712Z,8.38
2023-01-06T15:24:53.026Z,3.65
2023-01-06T15:27:21.296Z,5.88
2023-01-06T15:29:53.209Z,6.80
2023-01-06T15:32:25.231Z,5.30
2023-01-06T15:34:56.209Z,4.15
2023-01-06T15:37:26.643Z,1.75
2023-01-06T15:39:54.683Z,4.38
2023-01-06T15:42:24.513Z,5.22
2023-01-06T15:44:57.879Z,6.30
2023-01-06T15:47:33.063Z,3.10
2023-01-06T15:50:03.555Z,5.07
2023-01-06T15:52:34.715Z,4.53
2023-01-06T15:55:04.705Z,4.47
2023-01-06T15:57:37.318Z,4.32
2023-01-06T16:00:09.091Z,3.58
2023-01-06T16:02:39.573Z,5.43
2023-01-06T16:05:07.746Z,6.35
2023-01-06T16:07:40.529Z,6.90
2023-01-06T16:10:30.622Z,6.57
2023-01-06T16:13:06.605Z,7.28
2023-01-06T16:15:46.128Z,6.03
2023-01-06T16:18:15.527Z,3.20
2023-01-06T16:20:43.417Z,4.47
2023-01-06T16:23:22.126Z,67.45
2023-01-06T16:25:51.581Z,19.30
2023-01-06T16:28:24.449Z,14.63
2023-01-06T16:31:07.178Z,10.77
2023-01-06T16:33:40.136Z,11.02
2023-01-06T16:36:16.160Z,7.63
2023-01-06T16:38:44.367Z,5.45
2023-01-06T16:41:17.881Z,5.03
2023-01-06T16:43:46.589Z,4.85
2023-01-06T16:46:20.953Z,5.88
2023-01-06T16:48:51.583Z,7.43
2023-01-06T16:51:19.506Z,6.05
2023-01-06T16:53:48.169Z,4.78
2023-01-06T16:56:19.495Z,4.88
2023-01-06T16:58:47.274Z,5.93
2023-01-06T17:01:17.348Z,6.30
2023-01-06T17:03:45.977Z,6.60
2023-01-06T17:06:20.774Z,6.95
2023-01-06T17:08:49.105Z,7.60
2023-01-06T17:11:18.700Z,5.80
2023-01-06T17:13:53.953Z,7.55
2023-01-06T17:16:27.068Z,9.27
2023-01-06T17:18:56.676Z,11.00
2023-01-06T17:21:29.420Z,11.55
2023-01-06T17:23:59.676Z,9.93
2023-01-06T17:26:27.901Z,10.40
2023-01-06T17:28:58.508Z,5.75
2023-01-06T17:31:35.211Z,7.57
2023-01-06T17:34:11.361Z,8.50
2023-01-06T17:36:42.531Z,10.13
2023-01-06T17:39:22.152Z,8.63
2023-01-06T17:41:50.041Z,9.63
2023-01-06T17:44:19.555Z,9.10
2023-01-06T17:46:47.783Z,8.40
2023-01-06T17:49:47.336Z,12.55
2023-01-06T17:52:19.212Z,7.18
2023-01-06T17:55:11.636Z,8.85
2023-01-06T17:57:42.071Z,9.20
2023-01-06T18:00:19.125Z,9.75
2023-01-06T18:02:49.734Z,11.07
2023-01-06T18:06:07.865Z,15.27
2023-01-06T18:08:38.610Z,12.90
2023-01-06T18:11:24.749Z,12.38
2023-01-06T18:13:53.603Z,14.85
2023-01-06T18:16:28.948Z,16.98
2023-01-06T18:19:05.845Z,13.05
2023-01-06T18:21:37.299Z,11.45
2023-01-06T18:24:22.460Z,12.60
2023-01-06T18:26:53.275Z,12.90
2023-01-06T18:29:24.820Z,9.38
2023-01-06T18:31:54.603Z,12.52
2023-01-06T18:34:29.627Z,8.13
2023-01-06T18:36:58.807Z,8.73
2023-01-06T18:39:30.639Z,8.30
2023-01-06T18:42:08.642Z,10.35
2023-01-06T18:44:36.354Z,9.30
2023-01-06T18:47:12.762Z,11.77
2023-01-06T18:49:40.443Z,10.85
2023-01-06T18:52:30.922Z,16.60
2023-01-06T18:55:00.909Z,12.55
2023-01-06T18:57:32.052Z,13.75
2023-01-06T19:00:13.296Z,13.13
2023-01-06T19:02:40.860Z,14.20
2023-01-06T19:05:13.097Z,12.25
2023-01-06T19:07:40.693Z,11.02
2023-01-06T19:10:26.404Z,15.77
2023-01-06T19:12:59.154Z,25.85
2023-01-06T19:15:27.978Z,26.08
2023-01-06T19:17:55.789Z,20.48
2023-01-06T19:20:28.669Z,17.50
2023-01-06T19:22:57.091Z,14.25
2023-01-06T19:25:33.322Z,16.48
2023-01-06T19:28:03.630Z,15.63
2023-01-06T19:30:41.974Z,14.13
2023-01-06T19:33:24.060Z,13.05
2023-01-06T19:35:52.517Z,10.90
2023-01-06T19:38:26.386Z,12.20
2023-01-06T19:40:56.474Z,11.88
2023-01-06T19:43:28.888Z,16.40
2023-01-06T19:45:57.466Z,15.45
2023-01-06T19:48:32.551Z,12.25
2023-01-06T19:51:09.538Z,12.52
2023-01-06T19:53:43.521Z,11.90
2023-01-06T19:56:22.137Z,15.25
2023-01-06T19:58:53.301Z,15.15
2023-01-06T20:01:22.860Z,12.02
2023-01-06T20:03:54.357Z,11.65
2023-01-06T20:06:23.461Z,12.27
2023-01-06T20:08:53.268Z,12.48
2023-01-06T20:11:23.293Z,13.23
2023-01-06T20:13:51.989Z,12.52
2023-01-06T20:16:19.737Z,13.60
2023-01-06T20:18:47.372Z,16.80
2023-01-06T20:21:15.002Z,17.95
2023-01-06T20:23:42.735Z,16.67
2023-01-06T20:26:10.357Z,14.10
2023-01-06T20:28:39.400Z,15.25
2023-01-06T20:31:07.017Z,13.20
2023-01-06T20:33:34.702Z,12.40
2023-01-06T20:36:02.273Z,10.43
2023-01-06T20:38:29.856Z,16.92
2023-01-06T20:40:57.434Z,12.00
2023-01-06T20:43:24.974Z,10.55
2023-01-06T20:45:54.031Z,13.50
2023-01-06T20:48:21.550Z,11.27
2023-01-06T20:50:49.159Z,12.05
2023-01-06T20:53:16.793Z,14.00
2023-01-06T20:55:44.386Z,10.18
2023-01-06T20:58:12.012Z,13.93
2023-01-06T21:00:39.692Z,16.48
2023-01-06T21:03:08.673Z,13.43
2023-01-06T21:05:37.620Z,10.98
2023-01-06T21:08:05.451Z,12.95
2023-01-06T21:10:33.154Z,12.38
2023-01-06T21:13:00.709Z,12.40
2023-01-06T21:15:28.302Z,15.30
2023-01-06T21:17:55.936Z,13.23
2023-01-06T21:20:24.812Z,14.50
2023-01-06T21:22:52.443Z,19.55
2023-01-06T21:25:20.635Z,15.95
2023-01-06T21:27:48.239Z,13.30
2023-01-06T21:30:17.716Z,12.10
2023-01-06T21:32:45.397Z,13.55
2023-01-06T21:35:12.991Z,10.55
2023-01-06T21:37:41.826Z,13.73
2023-01-06T21:40:11.206Z,13.25
2023-01-06T21:42:56.365Z,13.15
2023-01-06T21:45:24.372Z,14.90
2023-01-06T21:47:52.050Z,13.05
2023-01-06T21:50:20.591Z,16.13
2023-01-06T21:52:49.849Z,14.02
2023-01-06T21:55:17.674Z,14.65
2023-01-06T21:57:45.440Z,15.40
2023-01-06T22:00:13.869Z,13.70
2023-01-06T22:02:41.575Z,12.88
2023-01-06T22:05:09.958Z,10.82
2023-01-06T22:07:41.745Z,12.45
2023-01-06T22:10:13.167Z,12.07
2023-01-06T22:12:43.576Z,12.90
2023-01-06T22:15:12.266Z,12.90
2023-01-06T22:17:40.439Z,10.10
2023-01-06T22:20:09.375Z,11.15
2023-01-06T22:22:37.609Z,11.88
2023-01-06T22:25:06.653Z,14.25
2023-01-06T22:27:35.627Z,8.43
2023-01-06T22:30:03.285Z,9.23
2023-01-06T22:32:31.785Z,9.80
2023-01-06T22:34:59.423Z,12.48
2023-01-06T22:37:26.963Z,11.95
2023-01-06T22:39:54.817Z,12.30
2023-01-06T22:42:22.829Z,13.60
2023-01-06T22:44:51.720Z,13.60
2023-01-06T22:47:19.281Z,11.90
2023-01-06T22:49:46.855Z,14.63
2023-01-06T22:52:15.175Z,12.75
2023-01-06T22:54:42.769Z,13.70
2023-01-06T22:57:10.554Z,10.63
2023-01-06T22:59:38.103Z,11.70
2023-01-06T23:02:07.113Z,11.88
2023-01-06T23:04:34.726Z,12.30
2023-01-06T23:07:02.332Z,13.48
2023-01-06T23:09:29.903Z,13.25
2023-01-06T23:11:57.557Z,13.52
2023-01-06T23:14:25.160Z,11.27
2023-01-06T23:16:52.779Z,9.88
2023-01-06T23:19:21.777Z,12.82
2023-01-06T23:21:50.196Z,14.48
2023-01-06T23:24:17.863Z,14.43
2023-01-06T23:26:48.411Z,14.65
2023-01-06T23:29:16.035Z,11.63
2023-01-06T23:31:45.602Z,13.95
2023-01-06T23:34:14.787Z,11.85
2023-01-06T23:36:44.325Z,14.73
2023-01-06T23:39:13.528Z,12.68
2023-01-06T23:41:41.425Z,17.27
2023-01-06T23:44:12.795Z,52.78
2023-01-06T23:46:41.174Z,27.08
2023-01-06T23:49:12.219Z,20.52
2023-01-06T23:51:40.375Z,21.10
2023-01-06T23:54:11.463Z,12.73
2023-01-06T23:56:39.562Z,11.73
2023-01-06T23:59:09.605Z,9.98
